sensor_id;sensor_type;location;lat;lon;timestamp;pressure;altitude;pressure_sealevel;temperature;humidity
11415;BME280;5763;42.714;23.244;2023-05-03T00:01:38;94685.00;;;13.93;39.22
11415;BME280;5763;42.714;23.244;2023-05-03T00:04:05;94838.13;;;14.81;38.69
11415;BME280;5763;42.714;23.244;2023-05-03T00:06:34;94868.44;;;14.95;39.11
11415;BME280;5763;42.714;23.244;2023-05-03T00:09:04;94770.72;;;14.53;39.27
11415;BME280;5763;42.714;23.244;2023-05-03T00:11:31;94638.09;;;13.73;38.96
11415;BME280;5763;42.714;23.244;2023-05-03T00:13:57;94706.31;;;13.83;39.13
11415;BME280;5763;42.714;23.244;2023-05-03T00:16:24;94841.47;;;14.99;39.06
11415;BME280;5763;42.714;23.244;2023-05-03T00:18:51;94843.38;;;14.93;38.57
11415;BME280;5763;42.714;23.244;2023-05-03T00:21:18;94848.50;;;15.00;38.60
11415;BME280;5763;42.714;23.244;2023-05-03T00:23:46;94859.97;;;14.99;37.92
11415;BME280;5763;42.714;23.244;2023-05-03T00:26:13;94757.03;;;14.29;38.30
11415;BME280;5763;42.714;23.244;2023-05-03T00:28:40;94646.00;;;13.56;38.41
11415;BME280;5763;42.714;23.244;2023-05-03T00:31:08;94845.88;;;14.68;38.53
11415;BME280;5763;42.714;23.244;2023-05-03T00:33:35;94827.16;;;14.57;38.39
11415;BME280;5763;42.714;23.244;2023-05-03T00:36:07;94866.41;;;14.67;38.42
11415;BME280;5763;42.714;23.244;2023-05-03T00:38:37;94733.94;;;13.65;38.37
11415;BME280;5763;42.714;23.244;2023-05-03T00:41:09;94688.00;;;13.33;38.60
11415;BME280;5763;42.714;23.244;2023-05-03T00:43:37;94811.00;;;14.03;38.83
11415;BME280;5763;42.714;23.244;2023-05-03T00:46:05;94772.84;;;13.96;38.94
11415;BME280;5763;42.714;23.244;2023-05-03T00:48:32;94843.41;;;14.32;38.69
11415;BME280;5763;42.714;23.244;2023-05-03T00:51:00;94848.72;;;14.35;38.87
11415;BME280;5763;42.714;23.244;2023-05-03T00:53:28;94840.75;;;13.90;38.99
11415;BME280;5763;42.714;23.244;2023-05-03T00:55:57;94853.56;;;14.17;38.97
11415;BME280;5763;42.714;23.244;2023-05-03T00:58:26;94856.00;;;14.00;38.99
11415;BME280;5763;42.714;23.244;2023-05-03T01:00:56;94693.75;;;12.79;39.08
11415;BME280;5763;42.714;23.244;2023-05-03T01:03:25;94853.25;;;14.00;39.01
11415;BME280;5763;42.714;23.244;2023-05-03T01:06:09;94872.78;;;14.02;38.89
11415;BME280;5763;42.714;23.244;2023-05-03T01:08:43;94729.25;;;12.92;39.26
11415;BME280;5763;42.714;23.244;2023-05-03T01:11:17;94861.19;;;13.98;39.23
11415;BME280;5763;42.714;23.244;2023-05-03T01:13:54;94672.81;;;12.91;38.79
11415;BME280;5763;42.714;23.244;2023-05-03T01:16:25;94793.88;;;13.52;38.94
11415;BME280;5763;42.714;23.244;2023-05-03T01:18:56;94881.03;;;14.02;39.35
11415;BME280;5763;42.714;23.244;2023-05-03T01:21:27;94865.59;;;14.05;38.97
11415;BME280;5763;42.714;23.244;2023-05-03T01:23:59;94672.63;;;12.94;39.13
11415;BME280;5763;42.714;23.244;2023-05-03T01:26:30;94857.19;;;13.99;38.78
11415;BME280;5763;42.714;23.244;2023-05-03T01:28:57;94765.47;;;13.23;39.12
11415;BME280;5763;42.714;23.244;2023-05-03T01:31:28;94675.41;;;12.85;39.14
11415;BME280;5763;42.714;23.244;2023-05-03T01:34:09;94785.59;;;13.61;38.98
11415;BME280;5763;42.714;23.244;2023-05-03T01:36:42;94726.38;;;13.28;39.31
11415;BME280;5763;42.714;23.244;2023-05-03T01:39:14;94794.38;;;13.74;38.83
11415;BME280;5763;42.714;23.244;2023-05-03T01:41:45;94642.47;;;12.85;38.73
11415;BME280;5763;42.714;23.244;2023-05-03T01:44:14;94837.03;;;14.26;38.98
11415;BME280;5763;42.714;23.244;2023-05-03T01:46:42;94798.25;;;14.15;38.43
11415;BME280;5763;42.714;23.244;2023-05-03T01:49:09;94819.94;;;14.22;38.51
11415;BME280;5763;42.714;23.244;2023-05-03T01:51:36;94714.59;;;13.27;38.58
11415;BME280;5763;42.714;23.244;2023-05-03T01:54:04;94761.09;;;13.72;38.92
11415;BME280;5763;42.714;23.244;2023-05-03T01:56:33;94770.53;;;13.80;39.08
11415;BME280;5763;42.714;23.244;2023-05-03T01:59:02;94738.56;;;13.59;38.63
11415;BME280;5763;42.714;23.244;2023-05-03T02:01:29;94844.91;;;14.09;38.81
11415;BME280;5763;42.714;23.244;2023-05-03T02:03:56;94803.06;;;14.05;38.66
11415;BME280;5763;42.714;23.244;2023-05-03T02:06:23;94683.25;;;13.10;38.85
11415;BME280;5763;42.714;23.244;2023-05-03T02:08:50;94819.81;;;14.16;38.55
11415;BME280;5763;42.714;23.244;2023-05-03T02:11:17;94763.38;;;13.50;38.88
11415;BME280;5763;42.714;23.244;2023-05-03T02:13:44;94803.41;;;13.98;39.16
11415;BME280;5763;42.714;23.244;2023-05-03T02:16:15;94724.97;;;13.32;39.19
11415;BME280;5763;42.714;23.244;2023-05-03T02:18:42;94782.50;;;13.92;39.20
11415;BME280;5763;42.714;23.244;2023-05-03T02:21:09;94799.41;;;13.99;39.43
11415;BME280;5763;42.714;23.244;2023-05-03T02:23:36;94764.47;;;13.44;39.35
11415;BME280;5763;42.714;23.244;2023-05-03T02:26:02;94803.53;;;13.80;39.91
11415;BME280;5763;42.714;23.244;2023-05-03T02:28:29;94819.72;;;13.78;39.99
11415;BME280;5763;42.714;23.244;2023-05-03T02:30:56;94757.00;;;13.44;40.05
11415;BME280;5763;42.714;23.244;2023-05-03T02:33:25;94795.97;;;13.90;40.27
11415;BME280;5763;42.714;23.244;2023-05-03T02:35:52;94825.53;;;13.80;40.26
11415;BME280;5763;42.714;23.244;2023-05-03T02:38:19;94768.19;;;13.32;40.39
11415;BME280;5763;42.714;23.244;2023-05-03T02:40:46;94666.22;;;12.56;40.75
11415;BME280;5763;42.714;23.244;2023-05-03T02:43:13;94687.91;;;12.86;40.73
11415;BME280;5763;42.714;23.244;2023-05-03T02:45:39;94852.38;;;13.62;40.78
11415;BME280;5763;42.714;23.244;2023-05-03T02:48:08;94812.19;;;13.64;40.63
11415;BME280;5763;42.714;23.244;2023-05-03T02:50:37;94821.06;;;13.59;41.21
11415;BME280;5763;42.714;23.244;2023-05-03T02:53:04;94824.72;;;13.56;40.92
11415;BME280;5763;42.714;23.244;2023-05-03T02:55:31;94717.53;;;12.82;40.68
11415;BME280;5763;42.714;23.244;2023-05-03T02:57:58;94852.09;;;13.51;40.79
11415;BME280;5763;42.714;23.244;2023-05-03T03:00:25;94729.88;;;12.87;40.48
11415;BME280;5763;42.714;23.244;2023-05-03T03:02:52;94748.78;;;13.03;40.98
11415;BME280;5763;42.714;23.244;2023-05-03T03:05:19;94788.16;;;13.41;40.78
11415;BME280;5763;42.714;23.244;2023-05-03T03:07:48;94659.88;;;12.32;40.88
11415;BME280;5763;42.714;23.244;2023-05-03T03:10:15;94690.78;;;12.50;41.25
11415;BME280;5763;42.714;23.244;2023-05-03T03:12:42;94835.94;;;13.44;41.44
11415;BME280;5763;42.714;23.244;2023-05-03T03:15:10;94848.75;;;13.47;41.03
11415;BME280;5763;42.714;23.244;2023-05-03T03:17:38;94669.19;;;12.34;41.18
11415;BME280;5763;42.714;23.244;2023-05-03T03:20:06;94823.91;;;13.65;41.24
11415;BME280;5763;42.714;23.244;2023-05-03T03:22:36;94657.09;;;12.50;40.95
11415;BME280;5763;42.714;23.244;2023-05-03T03:25:05;94725.00;;;12.82;41.22
11415;BME280;5763;42.714;23.244;2023-05-03T03:27:32;94730.06;;;12.83;41.23
11415;BME280;5763;42.714;23.244;2023-05-03T03:29:59;94747.88;;;12.97;41.55
11415;BME280;5763;42.714;23.244;2023-05-03T03:32:26;94795.56;;;13.17;41.37
11415;BME280;5763;42.714;23.244;2023-05-03T03:34:53;94810.06;;;13.27;41.60
11415;BME280;5763;42.714;23.244;2023-05-03T03:37:20;94693.22;;;12.57;41.47
11415;BME280;5763;42.714;23.244;2023-05-03T03:39:47;94847.09;;;13.40;41.69
11415;BME280;5763;42.714;23.244;2023-05-03T03:42:16;94859.81;;;13.70;41.05
11415;BME280;5763;42.714;23.244;2023-05-03T03:44:43;94875.38;;;13.73;41.07
11415;BME280;5763;42.714;23.244;2023-05-03T03:47:10;94859.97;;;13.67;40.94
11415;BME280;5763;42.714;23.244;2023-05-03T03:49:37;94711.66;;;12.66;41.21
11415;BME280;5763;42.714;23.244;2023-05-03T03:52:04;94756.28;;;12.84;41.71
11415;BME280;5763;42.714;23.244;2023-05-03T03:54:31;94841.47;;;13.35;41.49
11415;BME280;5763;42.714;23.244;2023-05-03T03:56:59;94856.53;;;13.81;41.60
11415;BME280;5763;42.714;23.244;2023-05-03T03:59:28;94885.03;;;13.69;41.18
11415;BME280;5763;42.714;23.244;2023-05-03T04:01:55;94721.91;;;12.47;41.91
11415;BME280;5763;42.714;23.244;2023-05-03T04:04:22;94698.91;;;12.45;41.49
11415;BME280;5763;42.714;23.244;2023-05-03T04:06:49;94707.88;;;12.45;41.45
11415;BME280;5763;42.714;23.244;2023-05-03T04:09:16;94899.13;;;13.62;41.31
11415;BME280;5763;42.714;23.244;2023-05-03T04:11:44;94886.06;;;13.30;41.46
11415;BME280;5763;42.714;23.244;2023-05-03T04:14:11;94731.22;;;12.32;41.72
11415;BME280;5763;42.714;23.244;2023-05-03T04:16:39;94870.75;;;13.47;42.27
11415;BME280;5763;42.714;23.244;2023-05-03T04:19:06;94875.13;;;13.53;41.77
11415;BME280;5763;42.714;23.244;2023-05-03T04:21:33;94882.22;;;13.45;41.97
11415;BME280;5763;42.714;23.244;2023-05-03T04:24:00;94902.06;;;13.40;41.93
11415;BME280;5763;42.714;23.244;2023-05-03T04:26:30;94829.66;;;13.02;42.05
11415;BME280;5763;42.714;23.244;2023-05-03T04:28:57;94753.19;;;12.41;42.11
11415;BME280;5763;42.714;23.244;2023-05-03T04:31:24;94812.44;;;12.65;41.88
11415;BME280;5763;42.714;23.244;2023-05-03T04:33:54;94909.44;;;13.34;41.97
11415;BME280;5763;42.714;23.244;2023-05-03T04:36:22;94827.69;;;12.93;41.93
11415;BME280;5763;42.714;23.244;2023-05-03T04:38:51;94916.00;;;13.37;42.61
11415;BME280;5763;42.714;23.244;2023-05-03T04:41:17;94938.41;;;13.44;42.50
11415;BME280;5763;42.714;23.244;2023-05-03T04:43:45;94911.13;;;13.32;42.32
11415;BME280;5763;42.714;23.244;2023-05-03T04:46:12;94911.59;;;13.21;42.60
11415;BME280;5763;42.714;23.244;2023-05-03T04:48:39;94768.88;;;12.04;42.61
11415;BME280;5763;42.714;23.244;2023-05-03T04:51:09;94880.16;;;12.95;42.60
11415;BME280;5763;42.714;23.244;2023-05-03T04:53:35;94893.75;;;12.99;42.97
11415;BME280;5763;42.714;23.244;2023-05-03T04:56:03;94928.84;;;13.22;42.86
11415;BME280;5763;42.714;23.244;2023-05-03T04:58:30;94863.38;;;12.93;42.69
11415;BME280;5763;42.714;23.244;2023-05-03T05:00:57;94761.13;;;12.12;42.85
11415;BME280;5763;42.714;23.244;2023-05-03T05:03:24;94970.53;;;13.29;43.07
11415;BME280;5763;42.714;23.244;2023-05-03T05:05:51;94758.84;;;12.01;42.83
11415;BME280;5763;42.714;23.244;2023-05-03T05:08:19;94960.72;;;13.37;43.02
11415;BME280;5763;42.714;23.244;2023-05-03T05:10:46;94964.84;;;13.33;43.20
11415;BME280;5763;42.714;23.244;2023-05-03T05:13:13;94976.75;;;13.39;42.99
11415;BME280;5763;42.714;23.244;2023-05-03T05:15:40;94962.28;;;13.29;43.11
11415;BME280;5763;42.714;23.244;2023-05-03T05:18:07;94963.00;;;13.30;44.01
11415;BME280;5763;42.714;23.244;2023-05-03T05:20:37;94878.19;;;12.78;45.50
11415;BME280;5763;42.714;23.244;2023-05-03T05:23:07;94783.53;;;12.19;45.79
11415;BME280;5763;42.714;23.244;2023-05-03T05:25:36;94968.03;;;13.49;46.44
11415;BME280;5763;42.714;23.244;2023-05-03T05:28:05;94830.75;;;12.68;47.37
11415;BME280;5763;42.714;23.244;2023-05-03T05:30:32;94973.84;;;13.42;47.27
11415;BME280;5763;42.714;23.244;2023-05-03T05:33:00;94928.06;;;12.85;47.63
11415;BME280;5763;42.714;23.244;2023-05-03T05:35:28;94776.94;;;11.72;48.19
11415;BME280;5763;42.714;23.244;2023-05-03T05:37:55;94928.06;;;12.85;48.42
11415;BME280;5763;42.714;23.244;2023-05-03T05:40:22;94785.47;;;11.74;49.17
11415;BME280;5763;42.714;23.244;2023-05-03T05:42:50;94965.63;;;13.24;50.39
11415;BME280;5763;42.714;23.244;2023-05-03T05:45:17;94971.44;;;13.26;50.54
11415;BME280;5763;42.714;23.244;2023-05-03T05:47:44;94846.91;;;12.03;49.31
11415;BME280;5763;42.714;23.244;2023-05-03T05:50:11;94975.41;;;13.07;50.14
11415;BME280;5763;42.714;23.244;2023-05-03T05:52:37;94903.38;;;12.67;50.12
11415;BME280;5763;42.714;23.244;2023-05-03T05:55:05;94822.81;;;11.98;50.06
11415;BME280;5763;42.714;23.244;2023-05-03T05:57:32;94954.81;;;13.21;50.50
11415;BME280;5763;42.714;23.244;2023-05-03T06:00:00;94959.03;;;13.31;50.39
11415;BME280;5763;42.714;23.244;2023-05-03T06:02:33;94800.88;;;11.98;48.38
11415;BME280;5763;42.714;23.244;2023-05-03T06:05:00;94959.53;;;13.20;49.28
11415;BME280;5763;42.714;23.244;2023-05-03T06:07:28;94908.53;;;12.56;48.73
11415;BME280;5763;42.714;23.244;2023-05-03T06:09:55;94807.28;;;12.13;49.15
11415;BME280;5763;42.714;23.244;2023-05-03T06:12:22;94768.44;;;12.15;49.29
11415;BME280;5763;42.714;23.244;2023-05-03T06:14:49;94808.22;;;12.28;49.14
11415;BME280;5763;42.714;23.244;2023-05-03T06:17:17;94810.81;;;12.50;48.25
11415;BME280;5763;42.714;23.244;2023-05-03T06:19:44;94910.69;;;13.06;49.06
11415;BME280;5763;42.714;23.244;2023-05-03T06:22:16;94786.88;;;12.14;49.51
11415;BME280;5763;42.714;23.244;2023-05-03T06:24:43;94877.88;;;12.94;49.48
11415;BME280;5763;42.714;23.244;2023-05-03T06:27:10;94961.59;;;13.52;49.70
11415;BME280;5763;42.714;23.244;2023-05-03T06:29:37;94873.28;;;13.18;50.12
11415;BME280;5763;42.714;23.244;2023-05-03T06:32:04;94830.44;;;12.84;48.79
11415;BME280;5763;42.714;23.244;2023-05-03T06:34:33;94844.16;;;12.84;49.51
11415;BME280;5763;42.714;23.244;2023-05-03T06:37:00;94904.81;;;13.40;48.98
11415;BME280;5763;42.714;23.244;2023-05-03T06:39:27;94871.72;;;13.26;48.67
11415;BME280;5763;42.714;23.244;2023-05-03T06:41:54;94925.75;;;13.47;48.38
11415;BME280;5763;42.714;23.244;2023-05-03T06:44:23;94803.94;;;12.63;47.41
11415;BME280;5763;42.714;23.244;2023-05-03T06:46:50;94939.69;;;13.76;47.48
11415;BME280;5763;42.714;23.244;2023-05-03T06:49:17;94943.25;;;13.58;48.20
11415;BME280;5763;42.714;23.244;2023-05-03T06:51:46;94809.66;;;12.92;47.91
11415;BME280;5763;42.714;23.244;2023-05-03T06:54:13;94898.44;;;13.34;47.99
11415;BME280;5763;42.714;23.244;2023-05-03T06:56:39;94757.81;;;12.76;47.77
11415;BME280;5763;42.714;23.244;2023-05-03T06:59:06;94936.47;;;14.19;48.36
11415;BME280;5763;42.714;23.244;2023-05-03T07:01:33;94892.44;;;13.86;49.38
11415;BME280;5763;42.714;23.244;2023-05-03T07:04:00;94901.59;;;14.25;48.09
11415;BME280;5763;42.714;23.244;2023-05-03T07:06:27;94931.59;;;14.46;47.67
11415;BME280;5763;42.714;23.244;2023-05-03T07:08:55;94782.44;;;13.54;46.96
11415;BME280;5763;42.714;23.244;2023-05-03T07:11:22;94899.13;;;14.18;46.26
11415;BME280;5763;42.714;23.244;2023-05-03T07:13:50;94911.00;;;14.33;47.88
11415;BME280;5763;42.714;23.244;2023-05-03T07:16:17;94931.28;;;14.44;46.48
11415;BME280;5763;42.714;23.244;2023-05-03T07:18:44;94878.09;;;14.06;47.03
11415;BME280;5763;42.714;23.244;2023-05-03T07:21:12;94755.78;;;13.36;46.08
11415;BME280;5763;42.714;23.244;2023-05-03T07:23:39;94813.00;;;13.79;46.60
11415;BME280;5763;42.714;23.244;2023-05-03T07:26:09;94874.84;;;14.16;46.54
11415;BME280;5763;42.714;23.244;2023-05-03T07:28:43;94934.44;;;14.52;46.40
11415;BME280;5763;42.714;23.244;2023-05-03T07:31:20;94927.38;;;14.36;46.27
11415;BME280;5763;42.714;23.244;2023-05-03T07:33:50;94866.03;;;14.03;46.17
11415;BME280;5763;42.714;23.244;2023-05-03T07:36:18;94844.59;;;13.84;46.30
11415;BME280;5763;42.714;23.244;2023-05-03T07:38:45;94845.34;;;13.84;46.40
11415;BME280;5763;42.714;23.244;2023-05-03T07:41:18;94935.94;;;14.76;46.24
11415;BME280;5763;42.714;23.244;2023-05-03T07:43:45;94784.91;;;13.75;46.55
11415;BME280;5763;42.714;23.244;2023-05-03T07:46:12;94930.69;;;14.64;46.66
11415;BME280;5763;42.714;23.244;2023-05-03T07:48:39;94944.84;;;14.71;47.42
11415;BME280;5763;42.714;23.244;2023-05-03T07:51:06;94927.41;;;14.74;46.77
11415;BME280;5763;42.714;23.244;2023-05-03T07:53:33;94935.84;;;15.09;46.94
11415;BME280;5763;42.714;23.244;2023-05-03T07:56:00;94936.16;;;15.11;46.17
11415;BME280;5763;42.714;23.244;2023-05-03T07:58:28;94817.28;;;14.04;46.63
11415;BME280;5763;42.714;23.244;2023-05-03T08:00:56;94911.22;;;14.91;47.05
11415;BME280;5763;42.714;23.244;2023-05-03T08:03:23;94757.03;;;14.29;46.99
11415;BME280;5763;42.714;23.244;2023-05-03T08:05:50;94870.47;;;15.09;47.01
11415;BME280;5763;42.714;23.244;2023-05-03T08:08:17;94941.44;;;15.52;46.84
11415;BME280;5763;42.714;23.244;2023-05-03T08:10:44;94931.34;;;15.64;47.40
11415;BME280;5763;42.714;23.244;2023-05-03T08:13:11;94887.84;;;15.30;46.89
11415;BME280;5763;42.714;23.244;2023-05-03T08:15:39;94761.72;;;14.67;46.36
11415;BME280;5763;42.714;23.244;2023-05-03T08:18:06;94938.09;;;15.77;45.77
11415;BME280;5763;42.714;23.244;2023-05-03T08:20:33;94786.25;;;14.65;46.70
11415;BME280;5763;42.714;23.244;2023-05-03T08:23:01;94955.81;;;15.85;47.12
11415;BME280;5763;42.714;23.244;2023-05-03T08:25:28;94937.13;;;15.95;47.12
11415;BME280;5763;42.714;23.244;2023-05-03T08:27:57;94885.59;;;15.72;46.89
11415;BME280;5763;42.714;23.244;2023-05-03T08:30:24;94950.22;;;16.29;46.46
11415;BME280;5763;42.714;23.244;2023-05-03T08:32:52;94908.00;;;15.79;46.00
11415;BME280;5763;42.714;23.244;2023-05-03T08:35:19;94850.75;;;15.74;46.18
11415;BME280;5763;42.714;23.244;2023-05-03T08:37:49;94789.25;;;15.54;45.28
11415;BME280;5763;42.714;23.244;2023-05-03T08:40:16;94794.06;;;15.93;44.35
11415;BME280;5763;42.714;23.244;2023-05-03T08:42:43;94915.53;;;16.83;45.15
11415;BME280;5763;42.714;23.244;2023-05-03T08:45:11;94911.56;;;17.09;44.46
11415;BME280;5763;42.714;23.244;2023-05-03T08:47:40;94776.63;;;16.22;44.97
11415;BME280;5763;42.714;23.244;2023-05-03T08:50:11;94906.94;;;17.00;44.85
11415;BME280;5763;42.714;23.244;2023-05-03T08:52:39;94905.72;;;17.27;44.75
11415;BME280;5763;42.714;23.244;2023-05-03T08:55:07;94856.75;;;17.33;43.54
11415;BME280;5763;42.714;23.244;2023-05-03T08:57:35;94930.91;;;18.11;43.99
11415;BME280;5763;42.714;23.244;2023-05-03T09:00:03;94924.22;;;18.23;43.52
11415;BME280;5763;42.714;23.244;2023-05-03T09:02:35;94942.66;;;18.01;42.93
11415;BME280;5763;42.714;23.244;2023-05-03T09:05:04;94911.59;;;17.91;43.58
11415;BME280;5763;42.714;23.244;2023-05-03T09:07:33;94940.25;;;18.13;43.55
11415;BME280;5763;42.714;23.244;2023-05-03T09:10:00;94914.25;;;17.75;43.58
11415;BME280;5763;42.714;23.244;2023-05-03T09:12:34;94984.22;;;18.01;42.69
11415;BME280;5763;42.714;23.244;2023-05-03T09:15:02;94938.59;;;17.96;43.01
11415;BME280;5763;42.714;23.244;2023-05-03T09:17:30;94813.69;;;17.01;42.71
11415;BME280;5763;42.714;23.244;2023-05-03T09:19:58;94864.59;;;17.66;41.89
11415;BME280;5763;42.714;23.244;2023-05-03T09:22:27;94950.75;;;18.72;42.99
11415;BME280;5763;42.714;23.244;2023-05-03T09:24:56;94929.38;;;18.89;41.17
11415;BME280;5763;42.714;23.244;2023-05-03T09:27:24;94764.72;;;17.69;41.82
11415;BME280;5763;42.714;23.244;2023-05-03T09:29:52;94762.69;;;17.64;41.58
11415;BME280;5763;42.714;23.244;2023-05-03T09:32:20;94836.91;;;18.39;40.85
11415;BME280;5763;42.714;23.244;2023-05-03T09:34:48;94807.31;;;18.19;39.72
11415;BME280;5763;42.714;23.244;2023-05-03T09:37:15;94884.84;;;18.56;41.15
11415;BME280;5763;42.714;23.244;2023-05-03T09:39:44;94832.41;;;18.47;42.01
11415;BME280;5763;42.714;23.244;2023-05-03T09:42:14;94838.03;;;18.69;40.94
11415;BME280;5763;42.714;23.244;2023-05-03T09:44:43;94813.06;;;18.58;40.58
11415;BME280;5763;42.714;23.244;2023-05-03T09:47:13;94893.00;;;19.45;40.25
11415;BME280;5763;42.714;23.244;2023-05-03T09:49:40;94800.56;;;18.90;39.82
11415;BME280;5763;42.714;23.244;2023-05-03T09:52:07;94827.66;;;19.50;39.99
11415;BME280;5763;42.714;23.244;2023-05-03T09:54:35;94895.56;;;19.98;39.75
11415;BME280;5763;42.714;23.244;2023-05-03T09:57:02;94898.59;;;20.06;40.19
11415;BME280;5763;42.714;23.244;2023-05-03T09:59:32;94845.31;;;20.02;38.67
11415;BME280;5763;42.714;23.244;2023-05-03T10:02:00;94868.28;;;20.30;38.89
11415;BME280;5763;42.714;23.244;2023-05-03T10:04:34;94870.22;;;20.62;38.87
11415;BME280;5763;42.714;23.244;2023-05-03T10:07:07;94822.81;;;20.22;37.68
11415;BME280;5763;42.714;23.244;2023-05-03T10:09:38;94769.78;;;19.98;38.37
11415;BME280;5763;42.714;23.244;2023-05-03T10:12:08;94880.06;;;20.63;37.84
11415;BME280;5763;42.714;23.244;2023-05-03T10:14:39;94780.41;;;20.05;39.01
11415;BME280;5763;42.714;23.244;2023-05-03T10:17:11;94803.28;;;20.44;38.62
11415;BME280;5763;42.714;23.244;2023-05-03T10:19:46;94746.13;;;20.54;38.22
11415;BME280;5763;42.714;23.244;2023-05-03T10:22:16;94899.06;;;21.68;36.94
11415;BME280;5763;42.714;23.244;2023-05-03T10:25:16;94841.84;;;21.67;37.74
11415;BME280;5763;42.714;23.244;2023-05-03T10:27:49;94843.41;;;21.97;36.04
11415;BME280;5763;42.714;23.244;2023-05-03T10:30:29;94792.72;;;21.69;34.57
11415;BME280;5763;42.714;23.244;2023-05-03T10:32:57;94844.09;;;22.03;36.60
11415;BME280;5763;42.714;23.244;2023-05-03T10:35:28;94799.81;;;21.65;36.42
11415;BME280;5763;42.714;23.244;2023-05-03T10:37:55;94824.72;;;21.87;38.10
11415;BME280;5763;42.714;23.244;2023-05-03T10:40:23;94762.63;;;21.33;37.44
11415;BME280;5763;42.714;23.244;2023-05-03T10:42:54;94799.91;;;21.54;37.00
11415;BME280;5763;42.714;23.244;2023-05-03T10:45:23;94814.44;;;21.41;37.31
11415;BME280;5763;42.714;23.244;2023-05-03T10:48:20;94842.22;;;21.87;37.44
11415;BME280;5763;42.714;23.244;2023-05-03T10:50:47;94793.88;;;21.50;36.46
11415;BME280;5763;42.714;23.244;2023-05-03T10:53:42;94801.25;;;21.42;36.38
11415;BME280;5763;42.714;23.244;2023-05-03T10:56:10;94813.56;;;21.17;37.82
11415;BME280;5763;42.714;23.244;2023-05-03T10:58:41;94705.38;;;20.16;38.29
11415;BME280;5763;42.714;23.244;2023-05-03T11:01:09;94787.59;;;20.52;38.37
11415;BME280;5763;42.714;23.244;2023-05-03T11:03:42;94808.38;;;20.29;39.89
11415;BME280;5763;42.714;23.244;2023-05-03T11:06:29;94784.44;;;19.93;40.20
11415;BME280;5763;42.714;23.244;2023-05-03T11:08:57;94820.81;;;20.00;39.91
11415;BME280;5763;42.714;23.244;2023-05-03T11:11:24;94782.97;;;19.70;39.68
11415;BME280;5763;42.714;23.244;2023-05-03T11:13:51;94837.75;;;19.97;40.13
11415;BME280;5763;42.714;23.244;2023-05-03T11:16:19;94851.88;;;19.99;41.75
11415;BME280;5763;42.714;23.244;2023-05-03T11:18:52;94827.41;;;19.81;42.05
11415;BME280;5763;42.714;23.244;2023-05-03T11:21:20;94828.69;;;19.80;41.79
11415;BME280;5763;42.714;23.244;2023-05-03T11:23:48;94819.31;;;20.05;41.44
11415;BME280;5763;42.714;23.244;2023-05-03T11:26:15;94819.00;;;20.36;41.44
11415;BME280;5763;42.714;23.244;2023-05-03T11:28:54;94789.72;;;20.24;41.08
11415;BME280;5763;42.714;23.244;2023-05-03T11:31:23;94758.91;;;20.22;40.16
11415;BME280;5763;42.714;23.244;2023-05-03T11:33:55;94746.53;;;20.06;40.89
11415;BME280;5763;42.714;23.244;2023-05-03T11:36:22;94791.97;;;20.31;41.82
11415;BME280;5763;42.714;23.244;2023-05-03T11:38:49;94801.31;;;20.28;41.31
11415;BME280;5763;42.714;23.244;2023-05-03T11:41:17;94679.78;;;19.11;41.11
11415;BME280;5763;42.714;23.244;2023-05-03T11:43:45;94813.22;;;20.23;42.52
11415;BME280;5763;42.714;23.244;2023-05-03T11:46:15;94704.25;;;19.56;41.76
11415;BME280;5763;42.714;23.244;2023-05-03T11:48:49;94784.09;;;20.35;41.23
11415;BME280;5763;42.714;23.244;2023-05-03T11:51:24;94730.63;;;20.07;41.85
11415;BME280;5763;42.714;23.244;2023-05-03T11:53:55;94782.59;;;20.96;40.87
11415;BME280;5763;42.714;23.244;2023-05-03T11:56:22;94771.72;;;21.33;40.18
11415;BME280;5763;42.714;23.244;2023-05-03T11:58:51;94746.88;;;21.35;40.21
11415;BME280;5763;42.714;23.244;2023-05-03T12:01:21;94667.84;;;20.79;40.19
11415;BME280;5763;42.714;23.244;2023-05-03T12:03:52;94652.78;;;20.64;39.53
11415;BME280;5763;42.714;23.244;2023-05-03T12:06:21;94695.88;;;21.22;40.40
11415;BME280;5763;42.714;23.244;2023-05-03T12:08:48;94658.19;;;21.21;39.89
11415;BME280;5763;42.714;23.244;2023-05-03T12:11:18;94650.06;;;21.23;39.41
11415;BME280;5763;42.714;23.244;2023-05-03T12:13:54;94622.22;;;21.76;38.86
11415;BME280;5763;42.714;23.244;2023-05-03T12:16:22;94710.66;;;22.79;37.22
11415;BME280;5763;42.714;23.244;2023-05-03T12:18:51;94757.41;;;23.10;36.87
11415;BME280;5763;42.714;23.244;2023-05-03T12:21:22;94746.97;;;22.74;36.80
11415;BME280;5763;42.714;23.244;2023-05-03T12:23:51;94724.47;;;22.05;37.59
11415;BME280;5763;42.714;23.244;2023-05-03T12:26:18;94666.88;;;21.41;37.51
11415;BME280;5763;42.714;23.244;2023-05-03T12:28:48;94693.13;;;20.81;38.11
11415;BME280;5763;42.714;23.244;2023-05-03T12:31:18;94756.28;;;20.97;39.81
11415;BME280;5763;42.714;23.244;2023-05-03T12:33:45;94630.88;;;20.03;40.37
11415;BME280;5763;42.714;23.244;2023-05-03T12:36:12;94581.69;;;19.25;40.33
11415;BME280;5763;42.714;23.244;2023-05-03T12:38:40;94712.78;;;19.64;41.45
11415;BME280;5763;42.714;23.244;2023-05-03T12:41:07;94734.75;;;19.62;42.34
11415;BME280;5763;42.714;23.244;2023-05-03T12:43:35;94754.72;;;19.49;42.94
11415;BME280;5763;42.714;23.244;2023-05-03T12:46:02;94760.75;;;19.04;43.49
11415;BME280;5763;42.714;23.244;2023-05-03T12:48:29;94739.97;;;18.61;44.19
11415;BME280;5763;42.714;23.244;2023-05-03T12:50:56;94752.06;;;18.52;45.06
11415;BME280;5763;42.714;23.244;2023-05-03T12:53:24;94728.44;;;18.09;47.05
11415;BME280;5763;42.714;23.244;2023-05-03T12:55:52;94740.94;;;17.93;47.09
11415;BME280;5763;42.714;23.244;2023-05-03T12:58:20;94630.00;;;17.07;47.62
11415;BME280;5763;42.714;23.244;2023-05-03T13:00:47;94701.19;;;17.44;48.57
11415;BME280;5763;42.714;23.244;2023-05-03T13:03:15;94663.22;;;17.13;48.31
11415;BME280;5763;42.714;23.244;2023-05-03T13:05:42;94713.22;;;17.41;49.20
11415;BME280;5763;42.714;23.244;2023-05-03T13:08:09;94644.91;;;16.84;49.44